sensor_id;sensor_type;location;lat;lon;timestamp;temperature;humidity
24686;DHT22;12804;51.176;4.452;2023-03-01T00:01:32;2.20;99.90
24686;DHT22;12804;51.176;4.452;2023-03-01T00:03:59;2.10;99.90
24686;DHT22;12804;51.176;4.452;2023-03-01T00:06:25;2.10;99.90
24686;DHT22;12804;51.176;4.452;2023-03-01T00:08:51;2.10;99.90
24686;DHT22;12804;51.176;4.452;2023-03-01T00:11:20;2.10;99.90
24686;DHT22;12804;51.176;4.452;2023-03-01T00:13:49;2.00;99.90
24686;DHT22;12804;51.176;4.452;2023-03-01T00:16:24;2.00;99.90
24686;DHT22;12804;51.176;4.452;2023-03-01T00:18:50;2.00;99.90
24686;DHT22;12804;51.176;4.452;2023-03-01T00:21:17;2.00;99.90
24686;DHT22;12804;51.176;4.452;2023-03-01T00:23:43;1.90;99.90
24686;DHT22;12804;51.176;4.452;2023-03-01T00:26:11;1.90;99.90
24686;DHT22;12804;51.176;4.452;2023-03-01T00:28:39;1.90;99.90
24686;DHT22;12804;51.176;4.452;2023-03-01T00:31:13;1.90;99.90
24686;DHT22;12804;51.176;4.452;2023-03-01T00:33:40;1.80;99.90
24686;DHT22;12804;51.176;4.452;2023-03-01T00:36:06;1.80;99.90
24686;DHT22;12804;51.176;4.452;2023-03-01T00:38:40;1.90;99.90
24686;DHT22;12804;51.176;4.452;2023-03-01T00:41:11;1.80;99.90
24686;DHT22;12804;51.176;4.452;2023-03-01T00:43:38;1.70;99.90
24686;DHT22;12804;51.176;4.452;2023-03-01T00:46:12;1.80;99.90
24686;DHT22;12804;51.176;4.452;2023-03-01T00:48:38;1.80;99.90
24686;DHT22;12804;51.176;4.452;2023-03-01T00:51:16;1.60;99.90
24686;DHT22;12804;51.176;4.452;2023-03-01T00:53:42;1.60;99.90
24686;DHT22;12804;51.176;4.452;2023-03-01T00:56:10;1.70;99.90
24686;DHT22;12804;51.176;4.452;2023-03-01T00:58:36;1.70;99.90
24686;DHT22;12804;51.176;4.452;2023-03-01T01:01:10;1.70;99.90
24686;DHT22;12804;51.176;4.452;2023-03-01T01:03:54;1.60;99.90
24686;DHT22;12804;51.176;4.452;2023-03-01T01:06:24;1.60;99.90
24686;DHT22;12804;51.176;4.452;2023-03-01T01:08:52;1.50;99.90
24686;DHT22;12804;51.176;4.452;2023-03-01T01:11:18;1.50;99.90
24686;DHT22;12804;51.176;4.452;2023-03-01T01:13:45;1.50;99.90
24686;DHT22;12804;51.176;4.452;2023-03-01T01:16:12;1.50;99.90
24686;DHT22;12804;51.176;4.452;2023-03-01T01:18:39;1.50;99.90
24686;DHT22;12804;51.176;4.452;2023-03-01T01:21:10;1.50;99.90
24686;DHT22;12804;51.176;4.452;2023-03-01T01:23:37;1.50;99.90
24686;DHT22;12804;51.176;4.452;2023-03-01T01:26:09;1.50;99.90
24686;DHT22;12804;51.176;4.452;2023-03-01T01:28:35;1.50;99.90
24686;DHT22;12804;51.176;4.452;2023-03-01T01:31:02;1.40;99.90
24686;DHT22;12804;51.176;4.452;2023-03-01T01:33:28;1.20;99.90
24686;DHT22;12804;51.176;4.452;2023-03-01T01:35:54;1.40;99.90
24686;DHT22;12804;51.176;4.452;2023-03-01T01:38:20;1.30;99.90
24686;DHT22;12804;51.176;4.452;2023-03-01T01:40:47;1.30;99.90
24686;DHT22;12804;51.176;4.452;2023-03-01T01:43:30;1.30;99.90
24686;DHT22;12804;51.176;4.452;2023-03-01T01:46:06;1.40;99.90
24686;DHT22;12804;51.176;4.452;2023-03-01T01:48:42;1.30;99.90
24686;DHT22;12804;51.176;4.452;2023-03-01T01:51:20;1.30;99.90
24686;DHT22;12804;51.176;4.452;2023-03-01T01:53:50;1.30;99.90
24686;DHT22;12804;51.176;4.452;2023-03-01T01:56:17;1.30;99.90
24686;DHT22;12804;51.176;4.452;2023-03-01T01:58:45;1.30;99.90
24686;DHT22;12804;51.176;4.452;2023-03-01T02:01:13;1.30;99.90
24686;DHT22;12804;51.176;4.452;2023-03-01T02:03:40;1.30;99.90
24686;DHT22;12804;51.176;4.452;2023-03-01T02:06:34;1.30;99.90
24686;DHT22;12804;51.176;4.452;2023-03-01T02:09:07;1.30;99.90
24686;DHT22;12804;51.176;4.452;2023-03-01T02:11:36;1.30;99.90
24686;DHT22;12804;51.176;4.452;2023-03-01T02:14:03;1.20;99.90
24686;DHT22;12804;51.176;4.452;2023-03-01T02:16:30;1.10;99.90
24686;DHT22;12804;51.176;4.452;2023-03-01T02:18:57;1.10;99.90
24686;DHT22;12804;51.176;4.452;2023-03-01T02:27:00;1.00;99.90
24686;DHT22;12804;51.176;4.452;2023-03-01T02:29:27;1.00;99.90
24686;DHT22;12804;51.176;4.452;2023-03-01T02:31:56;1.00;99.90
24686;DHT22;12804;51.176;4.452;2023-03-01T02:34:26;1.00;99.90
24686;DHT22;12804;51.176;4.452;2023-03-01T02:37:06;1.00;99.90
24686;DHT22;12804;51.176;4.452;2023-03-01T02:39:48;1.10;99.90
24686;DHT22;12804;51.176;4.452;2023-03-01T02:42:21;1.10;99.90
24686;DHT22;12804;51.176;4.452;2023-03-01T02:44:49;1.20;99.90
24686;DHT22;12804;51.176;4.452;2023-03-01T02:47:15;1.20;99.90
24686;DHT22;12804;51.176;4.452;2023-03-01T02:49:41;1.20;99.90
24686;DHT22;12804;51.176;4.452;2023-03-01T02:57:18;1.00;99.90
24686;DHT22;12804;51.176;4.452;2023-03-01T02:59:45;1.00;99.90
24686;DHT22;12804;51.176;4.452;2023-03-01T03:05:10;1.00;99.90
24686;DHT22;12804;51.176;4.452;2023-03-01T03:07:39;1.00;99.90
24686;DHT22;12804;51.176;4.452;2023-03-01T03:10:09;1.00;99.90
24686;DHT22;12804;51.176;4.452;2023-03-01T03:12:37;1.00;99.90
24686;DHT22;12804;51.176;4.452;2023-03-01T03:15:05;1.00;99.90
24686;DHT22;12804;51.176;4.452;2023-03-01T03:17:39;1.00;99.90
24686;DHT22;12804;51.176;4.452;2023-03-01T03:20:07;0.90;99.90
24686;DHT22;12804;51.176;4.452;2023-03-01T03:22:40;0.90;99.90
24686;DHT22;12804;51.176;4.452;2023-03-01T03:25:09;1.00;99.90
24686;DHT22;12804;51.176;4.452;2023-03-01T03:27:42;1.00;99.90
24686;DHT22;12804;51.176;4.452;2023-03-01T03:30:12;1.00;99.90
24686;DHT22;12804;51.176;4.452;2023-03-01T03:32:40;0.90;99.90
24686;DHT22;12804;51.176;4.452;2023-03-01T03:35:08;0.90;99.90
24686;DHT22;12804;51.176;4.452;2023-03-01T03:37:39;1.00;99.90
24686;DHT22;12804;51.176;4.452;2023-03-01T03:40:26;0.90;99.90
24686;DHT22;12804;51.176;4.452;2023-03-01T03:42:52;0.90;99.90
24686;DHT22;12804;51.176;4.452;2023-03-01T03:45:18;0.80;99.90
24686;DHT22;12804;51.176;4.452;2023-03-01T03:47:44;0.70;99.90
24686;DHT22;12804;51.176;4.452;2023-03-01T03:50:12;0.70;99.90
24686;DHT22;12804;51.176;4.452;2023-03-01T03:52:38;0.70;99.90
24686;DHT22;12804;51.176;4.452;2023-03-01T03:55:06;0.70;99.90
24686;DHT22;12804;51.176;4.452;2023-03-01T03:57:41;0.80;99.90
24686;DHT22;12804;51.176;4.452;2023-03-01T04:00:09;0.80;99.90
24686;DHT22;12804;51.176;4.452;2023-03-01T04:02:45;0.70;99.90
24686;DHT22;12804;51.176;4.452;2023-03-01T04:05:13;0.60;99.90
24686;DHT22;12804;51.176;4.452;2023-03-01T04:07:40;0.70;99.90
24686;DHT22;12804;51.176;4.452;2023-03-01T04:10:12;0.60;99.90
24686;DHT22;12804;51.176;4.452;2023-03-01T04:12:38;0.60;99.90
24686;DHT22;12804;51.176;4.452;2023-03-01T04:15:06;0.60;99.90
24686;DHT22;12804;51.176;4.452;2023-03-01T04:17:46;0.60;99.90
24686;DHT22;12804;51.176;4.452;2023-03-01T04:20:15;0.60;99.90
24686;DHT22;12804;51.176;4.452;2023-03-01T04:22:58;0.60;99.90
24686;DHT22;12804;51.176;4.452;2023-03-01T04:25:24;0.60;99.90
24686;DHT22;12804;51.176;4.452;2023-03-01T04:27:52;0.60;99.90
24686;DHT22;12804;51.176;4.452;2023-03-01T04:30:18;0.60;99.90
24686;DHT22;12804;51.176;4.452;2023-03-01T04:32:44;0.60;99.90
24686;DHT22;12804;51.176;4.452;2023-03-01T04:35:09;0.50;99.90
24686;DHT22;12804;51.176;4.452;2023-03-01T04:37:35;0.50;99.90
24686;DHT22;12804;51.176;4.452;2023-03-01T04:40:02;0.50;99.90
24686;DHT22;12804;51.176;4.452;2023-03-01T04:42:38;0.50;99.90
24686;DHT22;12804;51.176;4.452;2023-03-01T04:45:05;0.50;99.90
24686;DHT22;12804;51.176;4.452;2023-03-01T04:47:42;0.60;99.90
24686;DHT22;12804;51.176;4.452;2023-03-01T04:50:11;0.60;99.90
24686;DHT22;12804;51.176;4.452;2023-03-01T04:52:37;0.60;99.90
24686;DHT22;12804;51.176;4.452;2023-03-01T04:55:03;0.50;99.90
24686;DHT22;12804;51.176;4.452;2023-03-01T04:57:30;0.40;99.90
24686;DHT22;12804;51.176;4.452;2023-03-01T04:59:56;0.40;99.90
24686;DHT22;12804;51.176;4.452;2023-03-01T05:02:22;0.30;99.90
24686;DHT22;12804;51.176;4.452;2023-03-01T05:04:48;0.30;99.90
24686;DHT22;12804;51.176;4.452;2023-03-01T05:07:14;0.30;99.90
24686;DHT22;12804;51.176;4.452;2023-03-01T05:09:47;0.30;99.90
24686;DHT22;12804;51.176;4.452;2023-03-01T05:12:14;0.30;99.90
24686;DHT22;12804;51.176;4.452;2023-03-01T05:14:41;0.40;99.90
24686;DHT22;12804;51.176;4.452;2023-03-01T05:17:07;0.30;99.90
24686;DHT22;12804;51.176;4.452;2023-03-01T05:19:34;0.30;99.90
24686;DHT22;12804;51.176;4.452;2023-03-01T05:22:00;0.30;99.90
24686;DHT22;12804;51.176;4.452;2023-03-01T05:24:35;0.30;99.90
24686;DHT22;12804;51.176;4.452;2023-03-01T05:27:02;0.30;99.90
24686;DHT22;12804;51.176;4.452;2023-03-01T05:29:30;0.30;99.90
24686;DHT22;12804;51.176;4.452;2023-03-01T05:31:58;0.30;99.90
24686;DHT22;12804;51.176;4.452;2023-03-01T05:34:32;0.20;99.90
24686;DHT22;12804;51.176;4.452;2023-03-01T05:36:58;0.20;99.90
24686;DHT22;12804;51.176;4.452;2023-03-01T05:39:26;0.20;99.90
24686;DHT22;12804;51.176;4.452;2023-03-01T05:41:53;0.20;99.90
24686;DHT22;12804;51.176;4.452;2023-03-01T05:44:19;0.20;99.90
24686;DHT22;12804;51.176;4.452;2023-03-01T05:46:47;0.10;99.90
24686;DHT22;12804;51.176;4.452;2023-03-01T05:49:13;0.10;99.90
24686;DHT22;12804;51.176;4.452;2023-03-01T05:51:41;0.00;99.90
24686;DHT22;12804;51.176;4.452;2023-03-01T05:54:07;0.10;99.90
24686;DHT22;12804;51.176;4.452;2023-03-01T05:56:34;0.10;99.90
24686;DHT22;12804;51.176;4.452;2023-03-01T05:59:01;0.10;99.90
24686;DHT22;12804;51.176;4.452;2023-03-01T06:01:27;0.10;99.90
24686;DHT22;12804;51.176;4.452;2023-03-01T06:03:53;0.10;99.90
24686;DHT22;12804;51.176;4.452;2023-03-01T06:06:19;0.10;99.90
24686;DHT22;12804;51.176;4.452;2023-03-01T06:08:44;0.10;99.90
24686;DHT22;12804;51.176;4.452;2023-03-01T06:11:10;0.00;99.90
24686;DHT22;12804;51.176;4.452;2023-03-01T06:13:36;0.10;99.90
24686;DHT22;12804;51.176;4.452;2023-03-01T06:16:05;0.10;99.90
24686;DHT22;12804;51.176;4.452;2023-03-01T06:18:31;0.10;99.90
24686;DHT22;12804;51.176;4.452;2023-03-01T06:20:57;0.10;99.90
24686;DHT22;12804;51.176;4.452;2023-03-01T06:23:24;0.00;99.90
24686;DHT22;12804;51.176;4.452;2023-03-01T06:25:50;0.00;99.90
24686;DHT22;12804;51.176;4.452;2023-03-01T06:28:16;0.00;99.90
24686;DHT22;12804;51.176;4.452;2023-03-01T06:30:42;-0.10;99.90
24686;DHT22;12804;51.176;4.452;2023-03-01T06:33:08;-0.10;99.90
24686;DHT22;12804;51.176;4.452;2023-03-01T06:35:34;-0.10;99.90
24686;DHT22;12804;51.176;4.452;2023-03-01T06:38:02;-0.10;99.90
24686;DHT22;12804;51.176;4.452;2023-03-01T06:40:28;-0.10;99.90
24686;DHT22;12804;51.176;4.452;2023-03-01T06:42:54;0.00;99.90
24686;DHT22;12804;51.176;4.452;2023-03-01T06:45:21;0.00;99.90
24686;DHT22;12804;51.176;4.452;2023-03-01T06:47:47;0.00;99.90
24686;DHT22;12804;51.176;4.452;2023-03-01T06:50:14;0.10;99.90
24686;DHT22;12804;51.176;4.452;2023-03-01T06:52:40;0.10;99.90
24686;DHT22;12804;51.176;4.452;2023-03-01T06:55:06;0.20;99.90
24686;DHT22;12804;51.176;4.452;2023-03-01T06:57:32;0.10;99.90
24686;DHT22;12804;51.176;4.452;2023-03-01T06:59:58;0.10;99.90
24686;DHT22;12804;51.176;4.452;2023-03-01T07:02:24;0.10;99.90
24686;DHT22;12804;51.176;4.452;2023-03-01T07:04:51;0.20;99.90
24686;DHT22;12804;51.176;4.452;2023-03-01T07:07:17;0.30;99.90
24686;DHT22;12804;51.176;4.452;2023-03-01T07:09:44;0.30;99.90
24686;DHT22;12804;51.176;4.452;2023-03-01T07:12:11;0.40;99.90
24686;DHT22;12804;51.176;4.452;2023-03-01T07:14:36;0.40;99.90
24686;DHT22;12804;51.176;4.452;2023-03-01T07:17:02;0.40;99.90
24686;DHT22;12804;51.176;4.452;2023-03-01T07:19:28;0.50;99.90
24686;DHT22;12804;51.176;4.452;2023-03-01T07:21:54;0.60;99.90
24686;DHT22;12804;51.176;4.452;2023-03-01T07:24:21;0.60;99.90
24686;DHT22;12804;51.176;4.452;2023-03-01T07:26:51;0.70;99.90
24686;DHT22;12804;51.176;4.452;2023-03-01T07:29:18;0.80;99.90
24686;DHT22;12804;51.176;4.452;2023-03-01T07:31:44;0.70;99.90
24686;DHT22;12804;51.176;4.452;2023-03-01T07:34:10;0.70;99.90
24686;DHT22;12804;51.176;4.452;2023-03-01T07:36:37;0.80;99.90
24686;DHT22;12804;51.176;4.452;2023-03-01T07:39:03;0.80;99.90
24686;DHT22;12804;51.176;4.452;2023-03-01T07:41:29;0.90;99.90
24686;DHT22;12804;51.176;4.452;2023-03-01T07:43:55;1.00;99.90
24686;DHT22;12804;51.176;4.452;2023-03-01T07:46:21;1.20;99.90
24686;DHT22;12804;51.176;4.452;2023-03-01T07:48:47;1.20;99.90
24686;DHT22;12804;51.176;4.452;2023-03-01T07:51:13;1.20;99.90
24686;DHT22;12804;51.176;4.452;2023-03-01T07:53:39;1.20;99.90
24686;DHT22;12804;51.176;4.452;2023-03-01T07:56:15;1.30;99.90
24686;DHT22;12804;51.176;4.452;2023-03-01T07:58:45;1.40;99.90
24686;DHT22;12804;51.176;4.452;2023-03-01T08:01:14;1.40;99.90
24686;DHT22;12804;51.176;4.452;2023-03-01T08:03:40;1.50;99.90
24686;DHT22;12804;51.176;4.452;2023-03-01T08:06:08;1.60;99.90
24686;DHT22;12804;51.176;4.452;2023-03-01T08:08:35;1.80;99.90
24686;DHT22;12804;51.176;4.452;2023-03-01T08:11:03;1.80;99.90
24686;DHT22;12804;51.176;4.452;2023-03-01T08:13:30;1.80;99.90
24686;DHT22;12804;51.176;4.452;2023-03-01T08:16:04;1.90;99.90
24686;DHT22;12804;51.176;4.452;2023-03-01T08:18:31;2.00;99.90
24686;DHT22;12804;51.176;4.452;2023-03-01T08:21:11;2.00;99.90
24686;DHT22;12804;51.176;4.452;2023-03-01T08:23:37;2.10;99.90
24686;DHT22;12804;51.176;4.452;2023-03-01T08:26:14;2.00;99.90
24686;DHT22;12804;51.176;4.452;2023-03-01T08:28:41;1.90;99.90
24686;DHT22;12804;51.176;4.452;2023-03-01T08:31:15;1.80;99.90
24686;DHT22;12804;51.176;4.452;2023-03-01T08:33:42;1.90;99.90
24686;DHT22;12804;51.176;4.452;2023-03-01T08:36:08;1.90;99.90
24686;DHT22;12804;51.176;4.452;2023-03-01T08:38:34;1.90;99.90
24686;DHT22;12804;51.176;4.452;2023-03-01T08:41:02;1.90;99.90
24686;DHT22;12804;51.176;4.452;2023-03-01T08:43:28;2.10;99.90
24686;DHT22;12804;51.176;4.452;2023-03-01T08:45:54;2.30;99.90
24686;DHT22;12804;51.176;4.452;2023-03-01T08:48:20;2.40;99.90
24686;DHT22;12804;51.176;4.452;2023-03-01T08:50:46;2.60;99.90
24686;DHT22;12804;51.176;4.452;2023-03-01T08:53:11;2.50;99.90
24686;DHT22;12804;51.176;4.452;2023-03-01T08:55:37;2.60;99.90
24686;DHT22;12804;51.176;4.452;2023-03-01T08:58:03;2.70;99.90
24686;DHT22;12804;51.176;4.452;2023-03-01T09:00:29;2.90;99.90
24686;DHT22;12804;51.176;4.452;2023-03-01T09:02:55;3.10;99.90
24686;DHT22;12804;51.176;4.452;2023-03-01T09:05:21;3.30;99.90
24686;DHT22;12804;51.176;4.452;2023-03-01T09:07:46;3.20;99.90
24686;DHT22;12804;51.176;4.452;2023-03-01T09:10:12;3.20;99.90
24686;DHT22;12804;51.176;4.452;2023-03-01T09:12:38;3.30;99.90
24686;DHT22;12804;51.176;4.452;2023-03-01T09:15:04;3.30;99.90
24686;DHT22;12804;51.176;4.452;2023-03-01T09:17:30;3.40;99.90
24686;DHT22;12804;51.176;4.452;2023-03-01T09:19:56;3.50;99.90
24686;DHT22;12804;51.176;4.452;2023-03-01T09:22:22;3.60;99.90
24686;DHT22;12804;51.176;4.452;2023-03-01T09:24:47;3.60;99.90
24686;DHT22;12804;51.176;4.452;2023-03-01T09:27:13;3.60;99.90
24686;DHT22;12804;51.176;4.452;2023-03-01T09:29:40;3.70;99.90
24686;DHT22;12804;51.176;4.452;2023-03-01T09:32:05;3.70;99.90
24686;DHT22;12804;51.176;4.452;2023-03-01T09:34:33;3.80;99.90
24686;DHT22;12804;51.176;4.452;2023-03-01T09:37:19;4.00;99.90
24686;DHT22;12804;51.176;4.452;2023-03-01T09:39:45;4.10;99.90
24686;DHT22;12804;51.176;4.452;2023-03-01T09:42:12;4.20;99.90
24686;DHT22;12804;51.176;4.452;2023-03-01T09:44:45;4.30;99.90
24686;DHT22;12804;51.176;4.452;2023-03-01T09:47:24;4.50;99.90
24686;DHT22;12804;51.176;4.452;2023-03-01T09:50:15;4.40;99.90
24686;DHT22;12804;51.176;4.452;2023-03-01T09:55:26;4.60;99.90
24686;DHT22;12804;51.176;4.452;2023-03-01T10:00:50;4.80;99.90
24686;DHT22;12804;51.176;4.452;2023-03-01T10:03:38;4.90;99.90
24686;DHT22;12804;51.176;4.452;2023-03-01T10:06:17;4.90;99.90
24686;DHT22;12804;51.176;4.452;2023-03-01T10:08:55;4.90;99.90
24686;DHT22;12804;51.176;4.452;2023-03-01T10:11:22;5.00;99.90
24686;DHT22;12804;51.176;4.452;2023-03-01T10:14:50;5.10;99.90
24686;DHT22;12804;51.176;4.452;2023-03-01T10:17:09;5.40;99.90
24686;DHT22;12804;51.176;4.452;2023-03-01T10:19:45;5.40;99.90
24686;DHT22;12804;51.176;4.452;2023-03-01T10:22:29;5.60;99.90
24686;DHT22;12804;51.176;4.452;2023-03-01T10:24:59;5.70;99.90
24686;DHT22;12804;51.176;4.452;2023-03-01T10:27:52;5.80;99.90
24686;DHT22;12804;51.176;4.452;2023-03-01T10:30:32;6.30;99.90
24686;DHT22;12804;51.176;4.452;2023-03-01T10:33:00;7.00;99.90
24686;DHT22;12804;51.176;4.452;2023-03-01T10:35:33;7.60;99.90
24686;DHT22;12804;51.176;4.452;2023-03-01T10:38:03;8.30;99.90
24686;DHT22;12804;51.176;4.452;2023-03-01T10:40:31;8.50;99.90
24686;DHT22;12804;51.176;4.452;2023-03-01T10:42:58;8.50;99.90
24686;DHT22;12804;51.176;4.452;2023-03-01T10:50:35;9.50;99.90
24686;DHT22;12804;51.176;4.452;2023-03-01T10:53:04;10.30;99.90
24686;DHT22;12804;51.176;4.452;2023-03-01T10:55:34;10.80;99.90
24686;DHT22;12804;51.176;4.452;2023-03-01T10:58:18;11.40;99.90
24686;DHT22;12804;51.176;4.452;2023-03-01T11:03:23;11.50;99.90
24686;DHT22;12804;51.176;4.452;2023-03-01T11:05:56;12.20;99.90
24686;DHT22;12804;51.176;4.452;2023-03-01T11:08:31;12.60;99.90
24686;DHT22;12804;51.176;4.452;2023-03-01T11:13:55;11.40;99.90
24686;DHT22;12804;51.176;4.452;2023-03-01T11:16:38;12.20;99.90
24686;DHT22;12804;51.176;4.452;2023-03-01T11:19:19;12.90;99.90
24686;DHT22;12804;51.176;4.452;2023-03-01T11:22:19;12.70;99.90
24686;DHT22;12804;51.176;4.452;2023-03-01T11:24:49;13.70;99.90
24686;DHT22;12804;51.176;4.452;2023-03-01T11:27:28;13.90;99.90
24686;DHT22;12804;51.176;4.452;2023-03-01T11:33:08;15.30;99.40
24686;DHT22;12804;51.176;4.452;2023-03-01T11:36:00;15.60;97.30
24686;DHT22;12804;51.176;4.452;2023-03-01T11:38:27;15.70;95.50
24686;DHT22;12804;51.176;4.452;2023-03-01T11:40:59;14.90;95.20
24686;DHT22;12804;51.176;4.452;2023-03-01T11:43:50;14.30;95.40
24686;DHT22;12804;51.176;4.452;2023-03-01T11:46:27;14.90;95.30
24686;DHT22;12804;51.176;4.452;2023-03-01T11:57:33;11.80;97.70
24686;DHT22;12804;51.176;4.452;2023-03-01T12:03:25;12.00;97.70
24686;DHT22;12804;51.176;4.452;2023-03-01T12:06:04;12.30;97.80
24686;DHT22;12804;51.176;4.452;2023-03-01T12:11:34;13.20;97.30
24686;DHT22;12804;51.176;4.452;2023-03-01T12:22:21;12.60;96.40
24686;DHT22;12804;51.176;4.452;2023-03-01T12:27:56;14.70;95.10
24686;DHT22;12804;51.176;4.452;2023-03-01T12:30:46;14.10;93.50
24686;DHT22;12804;51.176;4.452;2023-03-01T12:33:50;12.80;94.90
24686;DHT22;12804;51.176;4.452;2023-03-01T12:39:15;12.60;95.30
24686;DHT22;12804;51.176;4.452;2023-03-01T12:42:08;12.30;97.00
24686;DHT22;12804;51.176;4.452;2023-03-01T12:50:19;12.10;96.00
24686;DHT22;12804;51.176;4.452;2023-03-01T12:52:57;11.90;97.60
24686;DHT22;12804;51.176;4.452;2023-03-01T12:55:31;11.80;97.10
24686;DHT22;12804;51.176;4.452;2023-03-01T13:11:34;11.20;98.20
24686;DHT22;12804;51.176;4.452;2023-03-01T13:16:52;11.80;98.40
24686;DHT22;12804;51.176;4.452;2023-03-01T13:19:26;11.70;96.90
24686;DHT22;12804;51.176;4.452;2023-03-01T13:21:54;11.80;97.90
24686;DHT22;12804;51.176;4.452;2023-03-01T13:24:27;11.50;96.90
24686;DHT22;12804;51.176;4.452;2023-03-01T13:32:20;12.00;97.20
24686;DHT22;12804;51.176;4.452;2023-03-01T13:34:48;12.10;97.30
24686;DHT22;12804;51.176;4.452;2023-03-01T13:37:29;12.20;96.60
24686;DHT22;12804;51.176;4.452;2023-03-01T13:39:57;11.90;96.80
24686;DHT22;12804;51.176;4.452;2023-03-01T13:44:56;12.90;96.00
24686;DHT22;12804;51.176;4.452;2023-03-01T13:47:23;13.60;95.20
24686;DHT22;12804;51.176;4.452;2023-03-01T13:49:51;14.20;94.80
24686;DHT22;12804;51.176;4.452;2023-03-01T13:55:17;14.60;93.30
24686;DHT22;12804;51.176;4.452;2023-03-01T13:57:47;15.10;92.90
24686;DHT22;12804;51.176;4.452;2023-03-01T14:00:29;14.70;92.10
24686;DHT22;12804;51.176;4.452;2023-03-01T14:05:35;14.50;92.00
24686;DHT22;12804;51.176;4.452;2023-03-01T14:08:03;14.00;91.70
24686;DHT22;12804;51.176;4.452;2023-03-01T14:19:17;16.60;89.20
24686;DHT22;12804;51.176;4.452;2023-03-01T14:21:44;17.10;84.40
24686;DHT22;12804;51.176;4.452;2023-03-01T14:24:23;17.60;81.70
24686;DHT22;12804;51.176;4.452;2023-03-01T14:26:50;17.80;82.00
24686;DHT22;12804;51.176;4.452;2023-03-01T14:29:35;17.30;81.10
24686;DHT22;12804;51.176;4.452;2023-03-01T14:32:29;16.10;84.00
24686;DHT22;12804;51.176;4.452;2023-03-01T14:34:56;17.40;80.80
24686;DHT22;12804;51.176;4.452;2023-03-01T14:37:34;17.20;78.10
24686;DHT22;12804;51.176;4.452;2023-03-01T14:40:02;17.20;77.50
24686;DHT22;12804;51.176;4.452;2023-03-01T14:42:31;18.00;76.70
24686;DHT22;12804;51.176;4.452;2023-03-01T14:45:00;17.30;76.10
24686;DHT22;12804;51.176;4.452;2023-03-01T14:47:32;16.40;77.50
24686;DHT22;12804;51.176;4.452;2023-03-01T14:50:23;17.40;77.80
24686;DHT22;12804;51.176;4.452;2023-03-01T14:52:52;18.90;74.40
24686;DHT22;12804;51.176;4.452;2023-03-01T14:55:27;17.10;73.70
24686;DHT22;12804;51.176;4.452;2023-03-01T14:57:54;16.50;75.80
24686;DHT22;12804;51.176;4.452;2023-03-01T15:00:29;16.10;78.20
24686;DHT22;12804;51.176;4.452;2023-03-01T15:03:01;14.00;81.30
24686;DHT22;12804;51.176;4.452;2023-03-01T15:05:30;12.90;84.80
24686;DHT22;12804;51.176;4.452;2023-03-01T15:07:58;11.90;87.90
24686;DHT22;12804;51.176;4.452;2023-03-01T15:10:33;11.10;90.70
24686;DHT22;12804;51.176;4.452;2023-03-01T15:13:23;10.20;92.20
24686;DHT22;12804;51.176;4.452;2023-03-01T15:15:51;9.70;94.50
24686;DHT22;12804;51.176;4.452;2023-03-01T15:18:38;9.90;94.80
24686;DHT22;12804;51.176;4.452;2023-03-01T15:21:33;9.40;96.70
24686;DHT22;12804;51.176;4.452;2023-03-01T15:26:59;9.50;97.30
24686;DHT22;12804;51.176;4.452;2023-03-01T15:29:29;9.60;97.80
24686;DHT22;12804;51.176;4.452;2023-03-01T15:32:22;9.70;97.50
24686;DHT22;12804;51.176;4.452;2023-03-01T15:34:49;9.40;98.50
24686;DHT22;12804;51.176;4.452;2023-03-01T15:37:39;8.90;99.70
24686;DHT22;12804;51.176;4.452;2023-03-01T15:40:26;8.70;99.90
24686;DHT22;12804;51.176;4.452;2023-03-01T15:42:59;8.70;99.90
24686;DHT22;12804;51.176;4.452;2023-03-01T15:45:27;8.50;99.90
24686;DHT22;12804;51.176;4.452;2023-03-01T15:50:30;8.30;99.90
24686;DHT22;12804;51.176;4.452;2023-03-01T15:53:00;8.10;99.90
24686;DHT22;12804;51.176;4.452;2023-03-01T15:55:28;8.00;99.90
24686;DHT22;12804;51.176;4.452;2023-03-01T15:58:15;7.90;99.90
24686;DHT22;12804;51.176;4.452;2023-03-01T16:00:44;8.10;99.90
24686;DHT22;12804;51.176;4.452;2023-03-01T16:03:13;8.10;99.90
24686;DHT22;12804;51.176;4.452;2023-03-01T16:05:39;8.10;99.90
24686;DHT22;12804;51.176;4.452;2023-03-01T16:08:05;8.20;99.90
24686;DHT22;12804;51.176;4.452;2023-03-01T16:10:32;7.90;99.90
24686;DHT22;12804;51.176;4.452;2023-03-01T16:12:59;7.90;99.90
24686;DHT22;12804;51.176;4.452;2023-03-01T16:15:27;7.80;99.90
24686;DHT22;12804;51.176;4.452;2023-03-01T16:17:54;7.80;99.90
24686;DHT22;12804;51.176;4.452;2023-03-01T16:20:23;7.80;99.90
24686;DHT22;12804;51.176;4.452;2023-03-01T16:22:49;7.90;99.90
24686;DHT22;12804;51.176;4.452;2023-03-01T16:25:17;7.80;99.90
24686;DHT22;12804;51.176;4.452;2023-03-01T16:27:48;7.70;99.90
24686;DHT22;12804;51.176;4.452;2023-03-01T16:30:16;7.70;99.90
24686;DHT22;12804;51.176;4.452;2023-03-01T16:32:43;7.70;99.90
24686;DHT22;12804;51.176;4.452;2023-03-01T16:35:11;7.60;99.90
24686;DHT22;12804;51.176;4.452;2023-03-01T16:37:38;7.70;99.90
24686;DHT22;12804;51.176;4.452;2023-03-01T16:40:06;7.60;99.90
24686;DHT22;12804;51.176;4.452;2023-03-01T16:42:36;7.40;99.90
24686;DHT22;12804;51.176;4.452;2023-03-01T16:45:07;7.40;99.90
24686;DHT22;12804;51.176;4.452;2023-03-01T16:47:34;7.40;99.90
24686;DHT22;12804;51.176;4.452;2023-03-01T16:49:59;7.30;99.90
24686;DHT22;12804;51.176;4.452;2023-03-01T16:52:25;7.30;99.90
24686;DHT22;12804;51.176;4.452;2023-03-01T16:54:51;7.20;99.90
24686;DHT22;12804;51.176;4.452;2023-03-01T16:57:17;7.00;99.90
24686;DHT22;12804;51.176;4.452;2023-03-01T16:59:43;7.10;99.90
24686;DHT22;12804;51.176;4.452;2023-03-01T17:02:13;7.10;99.90
24686;DHT22;12804;51.176;4.452;2023-03-01T17:04:40;7.10;99.90
24686;DHT22;12804;51.176;4.452;2023-03-01T17:07:06;7.10;99.90
24686;DHT22;12804;51.176;4.452;2023-03-01T17:09:36;7.20;99.90
24686;DHT22;12804;51.176;4.452;2023-03-01T17:12:04;7.10;99.90
24686;DHT22;12804;51.176;4.452;2023-03-01T17:14:34;7.10;99.90
24686;DHT22;12804;51.176;4.452;2023-03-01T17:17:02;7.00;99.90
24686;DHT22;12804;51.176;4.452;2023-03-01T17:19:28;6.90;99.90
24686;DHT22;12804;51.176;4.452;2023-03-01T17:21:54;6.80;99.90
24686;DHT22;12804;51.176;4.452;2023-03-01T17:24:20;6.80;99.90
24686;DHT22;12804;51.176;4.452;2023-03-01T17:26:45;6.70;99.90
24686;DHT22;12804;51.176;4.452;2023-03-01T17:29:11;6.70;99.90
24686;DHT22;12804;51.176;4.452;2023-03-01T17:31:38;6.60;99.90
24686;DHT22;12804;51.176;4.452;2023-03-01T17:34:04;6.60;99.90
24686;DHT22;12804;51.176;4.452;2023-03-01T17:36:29;6.50;99.90
24686;DHT22;12804;51.176;4.452;2023-03-01T17:38:55;6.50;99.90
24686;DHT22;12804;51.176;4.452;2023-03-01T17:41:21;6.50;99.90
24686;DHT22;12804;51.176;4.452;2023-03-01T17:43:49;6.40;99.90
24686;DHT22;12804;51.176;4.452;2023-03-01T17:46:15;6.40;99.90
24686;DHT22;12804;51.176;4.452;2023-03-01T17:48:41;6.30;99.90
24686;DHT22;12804;51.176;4.452;2023-03-01T17:51:09;6.30;99.90
24686;DHT22;12804;51.176;4.452;2023-03-01T17:53:36;6.20;99.90